sensor_id;sensor_type;location;lat;lon;timestamp;P1;durP1;ratioP1;P2;durP2;ratioP2
19278;SDS011;9773;47.062;15.446;2023-06-14T00:00:42;3.50;;;3.30;;
19278;SDS011;9773;47.062;15.446;2023-06-14T00:03:10;2.87;;;2.67;;
19278;SDS011;9773;47.062;15.446;2023-06-14T00:05:36;3.10;;;2.90;;
19278;SDS011;9773;47.062;15.446;2023-06-14T00:08:06;2.93;;;2.73;;
19278;SDS011;9773;47.062;15.446;2023-06-14T00:10:33;3.00;;;2.80;;
19278;SDS011;9773;47.062;15.446;2023-06-14T00:13:03;2.90;;;2.70;;
19278;SDS011;9773;47.062;15.446;2023-06-14T00:15:30;3.40;;;2.77;;
19278;SDS011;9773;47.062;15.446;2023-06-14T00:17:59;2.87;;;2.70;;
19278;SDS011;9773;47.062;15.446;2023-06-14T00:20:28;3.10;;;3.00;;
19278;SDS011;9773;47.062;15.446;2023-06-14T00:22:55;2.73;;;2.63;;
19278;SDS011;9773;47.062;15.446;2023-06-14T00:25:25;3.37;;;3.17;;
19278;SDS011;9773;47.062;15.446;2023-06-14T00:27:51;3.20;;;2.83;;
19278;SDS011;9773;47.062;15.446;2023-06-14T00:30:18;2.93;;;2.73;;
19278;SDS011;9773;47.062;15.446;2023-06-14T00:32:44;3.23;;;3.03;;
19278;SDS011;9773;47.062;15.446;2023-06-14T00:35:10;2.90;;;2.70;;
19278;SDS011;9773;47.062;15.446;2023-06-14T00:37:36;2.87;;;2.70;;
19278;SDS011;9773;47.062;15.446;2023-06-14T00:40:03;2.77;;;2.67;;
19278;SDS011;9773;47.062;15.446;2023-06-14T00:42:29;2.70;;;2.60;;
19278;SDS011;9773;47.062;15.446;2023-06-14T00:44:55;3.40;;;3.10;;
19278;SDS011;9773;47.062;15.446;2023-06-14T00:47:21;2.73;;;2.63;;
19278;SDS011;9773;47.062;15.446;2023-06-14T00:49:47;2.80;;;2.60;;
19278;SDS011;9773;47.062;15.446;2023-06-14T00:52:16;2.80;;;2.60;;
19278;SDS011;9773;47.062;15.446;2023-06-14T00:54:42;3.00;;;2.80;;
19278;SDS011;9773;47.062;15.446;2023-06-14T00:57:09;3.67;;;2.73;;
19278;SDS011;9773;47.062;15.446;2023-06-14T00:59:45;3.67;;;2.77;;
19278;SDS011;9773;47.062;15.446;2023-06-14T01:02:12;2.77;;;2.57;;
19278;SDS011;9773;47.062;15.446;2023-06-14T01:04:40;2.90;;;2.80;;
19278;SDS011;9773;47.062;15.446;2023-06-14T01:12:50;2.90;;;2.60;;
19278;SDS011;9773;47.062;15.446;2023-06-14T01:15:34;3.00;;;2.80;;
19278;SDS011;9773;47.062;15.446;2023-06-14T01:18:00;3.17;;;2.87;;
19278;SDS011;9773;47.062;15.446;2023-06-14T01:20:29;3.53;;;2.97;;
19278;SDS011;9773;47.062;15.446;2023-06-14T01:22:57;2.90;;;2.70;;
19278;SDS011;9773;47.062;15.446;2023-06-14T01:25:23;4.30;;;3.00;;
19278;SDS011;9773;47.062;15.446;2023-06-14T01:27:50;3.03;;;2.83;;
19278;SDS011;9773;47.062;15.446;2023-06-14T01:30:27;2.90;;;2.70;;
19278;SDS011;9773;47.062;15.446;2023-06-14T01:32:55;4.10;;;2.97;;
19278;SDS011;9773;47.062;15.446;2023-06-14T01:35:23;3.37;;;3.17;;
19278;SDS011;9773;47.062;15.446;2023-06-14T01:37:49;3.20;;;2.90;;
19278;SDS011;9773;47.062;15.446;2023-06-14T01:40:17;3.30;;;3.10;;
19278;SDS011;9773;47.062;15.446;2023-06-14T01:42:44;2.33;;;2.20;;
19278;SDS011;9773;47.062;15.446;2023-06-14T01:45:12;2.83;;;2.70;;
19278;SDS011;9773;47.062;15.446;2023-06-14T01:47:39;2.87;;;2.77;;
19278;SDS011;9773;47.062;15.446;2023-06-14T01:50:05;2.70;;;2.50;;
19278;SDS011;9773;47.062;15.446;2023-06-14T01:52:31;2.87;;;2.67;;
19278;SDS011;9773;47.062;15.446;2023-06-14T01:54:57;2.90;;;2.80;;
19278;SDS011;9773;47.062;15.446;2023-06-14T01:57:23;3.00;;;2.90;;
19278;SDS011;9773;47.062;15.446;2023-06-14T01:59:51;3.17;;;2.97;;
19278;SDS011;9773;47.062;15.446;2023-06-14T02:02:17;3.00;;;2.80;;
19278;SDS011;9773;47.062;15.446;2023-06-14T02:04:43;3.00;;;2.80;;
19278;SDS011;9773;47.062;15.446;2023-06-14T02:07:11;3.43;;;3.23;;
19278;SDS011;9773;47.062;15.446;2023-06-14T02:09:37;3.27;;;3.07;;
19278;SDS011;9773;47.062;15.446;2023-06-14T02:12:02;3.60;;;3.20;;
19278;SDS011;9773;47.062;15.446;2023-06-14T02:14:28;2.90;;;2.80;;
19278;SDS011;9773;47.062;15.446;2023-06-14T02:16:54;2.80;;;2.60;;
19278;SDS011;9773;47.062;15.446;2023-06-14T02:19:23;2.90;;;2.70;;
19278;SDS011;9773;47.062;15.446;2023-06-14T02:21:48;3.20;;;3.00;;
19278;SDS011;9773;47.062;15.446;2023-06-14T02:24:15;3.23;;;3.03;;
19278;SDS011;9773;47.062;15.446;2023-06-14T02:26:41;3.17;;;2.97;;
19278;SDS011;9773;47.062;15.446;2023-06-14T02:29:07;3.20;;;2.90;;
19278;SDS011;9773;47.062;15.446;2023-06-14T02:31:37;3.30;;;2.97;;
19278;SDS011;9773;47.062;15.446;2023-06-14T02:34:03;3.10;;;2.70;;
19278;SDS011;9773;47.062;15.446;2023-06-14T02:36:29;3.03;;;2.83;;
19278;SDS011;9773;47.062;15.446;2023-06-14T02:38:55;2.80;;;2.60;;
19278;SDS011;9773;47.062;15.446;2023-06-14T02:41:25;4.20;;;3.40;;
19278;SDS011;9773;47.062;15.446;2023-06-14T02:43:52;3.20;;;3.00;;
19278;SDS011;9773;47.062;15.446;2023-06-14T02:46:18;3.97;;;2.73;;
19278;SDS011;9773;47.062;15.446;2023-06-14T02:48:43;2.97;;;2.77;;
19278;SDS011;9773;47.062;15.446;2023-06-14T02:51:10;3.47;;;3.27;;
19278;SDS011;9773;47.062;15.446;2023-06-14T02:53:38;3.60;;;2.70;;
19278;SDS011;9773;47.062;15.446;2023-06-14T02:56:04;3.10;;;2.90;;
19278;SDS011;9773;47.062;15.446;2023-06-14T02:58:30;3.00;;;2.80;;
19278;SDS011;9773;47.062;15.446;2023-06-14T03:00:56;2.83;;;2.73;;
19278;SDS011;9773;47.062;15.446;2023-06-14T03:03:22;4.07;;;2.97;;
19278;SDS011;9773;47.062;15.446;2023-06-14T03:05:50;3.10;;;2.90;;
19278;SDS011;9773;47.062;15.446;2023-06-14T03:08:18;2.93;;;2.73;;
19278;SDS011;9773;47.062;15.446;2023-06-14T03:10:49;3.30;;;3.03;;
19278;SDS011;9773;47.062;15.446;2023-06-14T03:13:16;3.40;;;2.83;;
19278;SDS011;9773;47.062;15.446;2023-06-14T03:15:46;2.90;;;2.80;;
19278;SDS011;9773;47.062;15.446;2023-06-14T03:18:16;3.17;;;2.97;;
19278;SDS011;9773;47.062;15.446;2023-06-14T03:20:41;3.23;;;2.90;;
19278;SDS011;9773;47.062;15.446;2023-06-14T03:23:08;4.37;;;2.90;;
19278;SDS011;9773;47.062;15.446;2023-06-14T03:25:33;3.47;;;2.83;;
19278;SDS011;9773;47.062;15.446;2023-06-14T03:28:03;3.43;;;3.03;;
19278;SDS011;9773;47.062;15.446;2023-06-14T03:30:30;3.03;;;2.80;;
19278;SDS011;9773;47.062;15.446;2023-06-14T03:32:57;3.37;;;2.90;;
19278;SDS011;9773;47.062;15.446;2023-06-14T03:35:23;3.00;;;2.80;;
19278;SDS011;9773;47.062;15.446;2023-06-14T03:37:49;3.40;;;3.03;;
19278;SDS011;9773;47.062;15.446;2023-06-14T03:40:15;3.10;;;2.90;;
19278;SDS011;9773;47.062;15.446;2023-06-14T03:42:43;3.17;;;2.90;;
19278;SDS011;9773;47.062;15.446;2023-06-14T03:45:09;3.30;;;3.00;;
19278;SDS011;9773;47.062;15.446;2023-06-14T03:47:35;3.10;;;2.80;;
19278;SDS011;9773;47.062;15.446;2023-06-14T03:50:02;3.03;;;2.80;;
19278;SDS011;9773;47.062;15.446;2023-06-14T03:52:31;2.90;;;2.70;;
19278;SDS011;9773;47.062;15.446;2023-06-14T03:54:58;4.30;;;2.60;;
19278;SDS011;9773;47.062;15.446;2023-06-14T03:57:25;3.80;;;3.50;;
19278;SDS011;9773;47.062;15.446;2023-06-14T03:59:51;5.70;;;2.77;;
19278;SDS011;9773;47.062;15.446;2023-06-14T04:02:17;2.80;;;2.60;;
19278;SDS011;9773;47.062;15.446;2023-06-14T04:04:44;3.80;;;3.50;;
19278;SDS011;9773;47.062;15.446;2023-06-14T04:07:13;3.50;;;3.13;;
19278;SDS011;9773;47.062;15.446;2023-06-14T04:09:40;3.37;;;3.07;;
19278;SDS011;9773;47.062;15.446;2023-06-14T04:12:06;3.10;;;2.80;;
19278;SDS011;9773;47.062;15.446;2023-06-14T04:14:34;3.50;;;3.30;;
19278;SDS011;9773;47.062;15.446;2023-06-14T04:17:00;2.67;;;2.50;;
19278;SDS011;9773;47.062;15.446;2023-06-14T04:19:26;4.83;;;2.83;;
19278;SDS011;9773;47.062;15.446;2023-06-14T04:21:52;3.20;;;3.00;;
19278;SDS011;9773;47.062;15.446;2023-06-14T04:24:19;3.00;;;2.80;;
19278;SDS011;9773;47.062;15.446;2023-06-14T04:26:45;4.03;;;3.20;;
19278;SDS011;9773;47.062;15.446;2023-06-14T04:29:13;3.50;;;3.30;;
19278;SDS011;9773;47.062;15.446;2023-06-14T04:31:43;3.50;;;3.20;;
19278;SDS011;9773;47.062;15.446;2023-06-14T04:34:12;5.77;;;2.83;;
19278;SDS011;9773;47.062;15.446;2023-06-14T04:36:44;3.50;;;3.30;;
19278;SDS011;9773;47.062;15.446;2023-06-14T04:39:15;3.93;;;2.93;;
19278;SDS011;9773;47.062;15.446;2023-06-14T04:41:42;3.50;;;3.30;;
19278;SDS011;9773;47.062;15.446;2023-06-14T04:44:09;5.00;;;3.20;;
19278;SDS011;9773;47.062;15.446;2023-06-14T04:46:37;3.60;;;3.40;;
19278;SDS011;9773;47.062;15.446;2023-06-14T04:49:14;3.17;;;2.97;;
19278;SDS011;9773;47.062;15.446;2023-06-14T04:51:44;3.07;;;2.80;;
19278;SDS011;9773;47.062;15.446;2023-06-14T04:54:11;3.60;;;3.30;;
19278;SDS011;9773;47.062;15.446;2023-06-14T04:56:43;3.40;;;3.20;;
19278;SDS011;9773;47.062;15.446;2023-06-14T04:59:10;3.33;;;3.03;;
19278;SDS011;9773;47.062;15.446;2023-06-14T05:01:40;3.37;;;3.17;;
19278;SDS011;9773;47.062;15.446;2023-06-14T05:04:06;3.67;;;3.37;;
19278;SDS011;9773;47.062;15.446;2023-06-14T05:06:31;3.37;;;3.10;;
19278;SDS011;9773;47.062;15.446;2023-06-14T05:08:57;3.40;;;3.10;;
19278;SDS011;9773;47.062;15.446;2023-06-14T05:11:23;3.00;;;2.80;;
19278;SDS011;9773;47.062;15.446;2023-06-14T05:13:49;4.33;;;3.50;;
19278;SDS011;9773;47.062;15.446;2023-06-14T05:16:16;3.77;;;3.47;;
19278;SDS011;9773;47.062;15.446;2023-06-14T05:18:44;5.33;;;3.00;;
19278;SDS011;9773;47.062;15.446;2023-06-14T05:21:12;4.27;;;3.20;;
19278;SDS011;9773;47.062;15.446;2023-06-14T05:23:38;3.57;;;3.27;;
19278;SDS011;9773;47.062;15.446;2023-06-14T05:26:04;3.77;;;3.20;;
19278;SDS011;9773;47.062;15.446;2023-06-14T05:28:31;3.50;;;3.30;;
19278;SDS011;9773;47.062;15.446;2023-06-14T05:30:57;3.70;;;3.40;;
19278;SDS011;9773;47.062;15.446;2023-06-14T05:33:23;3.40;;;3.10;;
19278;SDS011;9773;47.062;15.446;2023-06-14T05:35:49;3.17;;;2.97;;
19278;SDS011;9773;47.062;15.446;2023-06-14T05:38:15;3.60;;;3.33;;
19278;SDS011;9773;47.062;15.446;2023-06-14T05:40:40;3.20;;;3.00;;
19278;SDS011;9773;47.062;15.446;2023-06-14T05:43:06;3.17;;;2.97;;
19278;SDS011;9773;47.062;15.446;2023-06-14T05:45:32;3.33;;;3.13;;
19278;SDS011;9773;47.062;15.446;2023-06-14T05:47:57;3.73;;;3.53;;
19278;SDS011;9773;47.062;15.446;2023-06-14T05:50:23;3.33;;;3.13;;
19278;SDS011;9773;47.062;15.446;2023-06-14T05:52:49;3.37;;;3.17;;
19278;SDS011;9773;47.062;15.446;2023-06-14T05:55:16;3.90;;;3.47;;
19278;SDS011;9773;47.062;15.446;2023-06-14T05:57:42;3.30;;;3.10;;
19278;SDS011;9773;47.062;15.446;2023-06-14T06:00:08;4.20;;;3.13;;
19278;SDS011;9773;47.062;15.446;2023-06-14T06:02:39;3.50;;;3.30;;
19278;SDS011;9773;47.062;15.446;2023-06-14T06:05:07;3.33;;;3.00;;
19278;SDS011;9773;47.062;15.446;2023-06-14T06:07:33;4.07;;;3.77;;
19278;SDS011;9773;47.062;15.446;2023-06-14T06:09:59;3.53;;;3.33;;
19278;SDS011;9773;47.062;15.446;2023-06-14T06:12:25;5.10;;;3.50;;
19278;SDS011;9773;47.062;15.446;2023-06-14T06:14:51;3.53;;;3.27;;
19278;SDS011;9773;47.062;15.446;2023-06-14T06:17:19;5.37;;;3.57;;
19278;SDS011;9773;47.062;15.446;2023-06-14T06:19:45;3.70;;;3.40;;
19278;SDS011;9773;47.062;15.446;2023-06-14T06:22:17;3.90;;;3.60;;
19278;SDS011;9773;47.062;15.446;2023-06-14T06:24:44;5.20;;;3.47;;
19278;SDS011;9773;47.062;15.446;2023-06-14T06:27:10;3.80;;;3.50;;
19278;SDS011;9773;47.062;15.446;2023-06-14T06:29:37;3.43;;;3.23;;
19278;SDS011;9773;47.062;15.446;2023-06-14T06:32:03;6.30;;;3.43;;
19278;SDS011;9773;47.062;15.446;2023-06-14T06:34:29;3.90;;;3.60;;
19278;SDS011;9773;47.062;15.446;2023-06-14T06:36:55;3.70;;;3.50;;
19278;SDS011;9773;47.062;15.446;2023-06-14T06:39:21;3.83;;;3.47;;
19278;SDS011;9773;47.062;15.446;2023-06-14T06:41:47;3.33;;;3.03;;
19278;SDS011;9773;47.062;15.446;2023-06-14T06:44:12;3.50;;;3.20;;
19278;SDS011;9773;47.062;15.446;2023-06-14T06:46:39;3.30;;;3.10;;
19278;SDS011;9773;47.062;15.446;2023-06-14T06:49:09;3.50;;;3.07;;
19278;SDS011;9773;47.062;15.446;2023-06-14T06:51:37;3.43;;;3.23;;
19278;SDS011;9773;47.062;15.446;2023-06-14T06:54:07;3.00;;;2.80;;
19278;SDS011;9773;47.062;15.446;2023-06-14T06:56:33;2.97;;;2.77;;
19278;SDS011;9773;47.062;15.446;2023-06-14T06:58:59;3.70;;;3.13;;
19278;SDS011;9773;47.062;15.446;2023-06-14T07:01:25;3.57;;;3.27;;
19278;SDS011;9773;47.062;15.446;2023-06-14T07:03:54;2.80;;;2.60;;
19278;SDS011;9773;47.062;15.446;2023-06-14T07:06:20;3.30;;;3.10;;
19278;SDS011;9773;47.062;15.446;2023-06-14T07:08:47;2.90;;;2.70;;
19278;SDS011;9773;47.062;15.446;2023-06-14T07:11:13;3.60;;;3.40;;
19278;SDS011;9773;47.062;15.446;2023-06-14T07:13:39;3.40;;;3.20;;
19278;SDS011;9773;47.062;15.446;2023-06-14T07:16:05;3.23;;;3.03;;
19278;SDS011;9773;47.062;15.446;2023-06-14T07:18:31;4.90;;;2.93;;
19278;SDS011;9773;47.062;15.446;2023-06-14T07:20:57;3.10;;;2.90;;
19278;SDS011;9773;47.062;15.446;2023-06-14T07:23:23;3.13;;;2.93;;
19278;SDS011;9773;47.062;15.446;2023-06-14T07:25:49;3.10;;;2.90;;
19278;SDS011;9773;47.062;15.446;2023-06-14T07:28:15;5.43;;;2.97;;
19278;SDS011;9773;47.062;15.446;2023-06-14T07:30:42;5.13;;;3.50;;
19278;SDS011;9773;47.062;15.446;2023-06-14T07:33:08;3.23;;;3.03;;
19278;SDS011;9773;47.062;15.446;2023-06-14T07:35:35;3.70;;;3.40;;
19278;SDS011;9773;47.062;15.446;2023-06-14T07:38:01;4.10;;;3.70;;
19278;SDS011;9773;47.062;15.446;2023-06-14T07:40:26;3.47;;;3.17;;
19278;SDS011;9773;47.062;15.446;2023-06-14T07:42:52;3.37;;;3.17;;
19278;SDS011;9773;47.062;15.446;2023-06-14T07:45:22;3.50;;;3.30;;
19278;SDS011;9773;47.062;15.446;2023-06-14T07:47:48;3.70;;;3.30;;
19278;SDS011;9773;47.062;15.446;2023-06-14T07:50:15;3.47;;;3.27;;
19278;SDS011;9773;47.062;15.446;2023-06-14T07:52:40;3.70;;;3.40;;
19278;SDS011;9773;47.062;15.446;2023-06-14T07:55:06;3.50;;;3.30;;
19278;SDS011;9773;47.062;15.446;2023-06-14T07:57:32;3.40;;;3.20;;
19278;SDS011;9773;47.062;15.446;2023-06-14T07:59:58;3.57;;;3.27;;
19278;SDS011;9773;47.062;15.446;2023-06-14T08:02:24;3.80;;;3.60;;
19278;SDS011;9773;47.062;15.446;2023-06-14T08:04:50;3.57;;;3.33;;
19278;SDS011;9773;47.062;15.446;2023-06-14T08:07:15;3.60;;;3.30;;
19278;SDS011;9773;47.062;15.446;2023-06-14T08:09:41;3.63;;;3.33;;
19278;SDS011;9773;47.062;15.446;2023-06-14T08:12:07;3.90;;;3.20;;
19278;SDS011;9773;47.062;15.446;2023-06-14T08:14:34;3.97;;;3.67;;
19278;SDS011;9773;47.062;15.446;2023-06-14T08:17:00;3.93;;;3.53;;
19278;SDS011;9773;47.062;15.446;2023-06-14T08:19:26;4.77;;;3.40;;
19278;SDS011;9773;47.062;15.446;2023-06-14T08:21:52;3.70;;;3.40;;
19278;SDS011;9773;47.062;15.446;2023-06-14T08:24:22;4.17;;;3.63;;
19278;SDS011;9773;47.062;15.446;2023-06-14T08:26:54;5.87;;;3.80;;
19278;SDS011;9773;47.062;15.446;2023-06-14T08:29:21;4.10;;;3.80;;
19278;SDS011;9773;47.062;15.446;2023-06-14T08:31:47;4.33;;;3.93;;
19278;SDS011;9773;47.062;15.446;2023-06-14T08:34:12;4.60;;;3.40;;
19278;SDS011;9773;47.062;15.446;2023-06-14T08:36:38;3.70;;;3.40;;
19278;SDS011;9773;47.062;15.446;2023-06-14T08:39:04;4.00;;;3.70;;
19278;SDS011;9773;47.062;15.446;2023-06-14T08:41:31;3.60;;;3.30;;
19278;SDS011;9773;47.062;15.446;2023-06-14T08:43:57;4.63;;;4.03;;
19278;SDS011;9773;47.062;15.446;2023-06-14T08:46:25;4.53;;;3.83;;
19278;SDS011;9773;47.062;15.446;2023-06-14T08:48:52;4.33;;;3.93;;
19278;SDS011;9773;47.062;15.446;2023-06-14T08:51:22;4.37;;;3.97;;
19278;SDS011;9773;47.062;15.446;2023-06-14T08:53:52;4.57;;;4.17;;
19278;SDS011;9773;47.062;15.446;2023-06-14T08:56:23;3.63;;;3.43;;
19278;SDS011;9773;47.062;15.446;2023-06-14T08:58:54;4.60;;;4.20;;
19278;SDS011;9773;47.062;15.446;2023-06-14T09:01:21;4.33;;;3.93;;
19278;SDS011;9773;47.062;15.446;2023-06-14T09:03:48;4.70;;;4.17;;
19278;SDS011;9773;47.062;15.446;2023-06-14T09:06:15;5.00;;;4.50;;
19278;SDS011;9773;47.062;15.446;2023-06-14T09:08:45;4.80;;;4.27;;
19278;SDS011;9773;47.062;15.446;2023-06-14T09:11:13;5.03;;;4.30;;
19278;SDS011;9773;47.062;15.446;2023-06-14T09:13:40;4.47;;;4.07;;
19278;SDS011;9773;47.062;15.446;2023-06-14T09:16:07;4.90;;;4.50;;
19278;SDS011;9773;47.062;15.446;2023-06-14T09:18:37;4.93;;;4.50;;
19278;SDS011;9773;47.062;15.446;2023-06-14T09:21:08;4.97;;;4.50;;
19278;SDS011;9773;47.062;15.446;2023-06-14T09:23:37;4.77;;;4.37;;
19278;SDS011;9773;47.062;15.446;2023-06-14T09:26:10;5.10;;;4.60;;
19278;SDS011;9773;47.062;15.446;2023-06-14T09:28:44;4.40;;;4.00;;
19278;SDS011;9773;47.062;15.446;2023-06-14T09:31:15;3.83;;;3.63;;
19278;SDS011;9773;47.062;15.446;2023-06-14T09:33:45;3.80;;;3.50;;
19278;SDS011;9773;47.062;15.446;2023-06-14T09:36:22;3.83;;;3.53;;
19278;SDS011;9773;47.062;15.446;2023-06-14T09:41:19;4.43;;;3.50;;
19278;SDS011;9773;47.062;15.446;2023-06-14T09:43:46;5.13;;;4.63;;
19278;SDS011;9773;47.062;15.446;2023-06-14T09:46:12;4.13;;;3.80;;
19278;SDS011;9773;47.062;15.446;2023-06-14T09:48:38;4.50;;;4.00;;
19278;SDS011;9773;47.062;15.446;2023-06-14T09:51:09;3.93;;;3.57;;
19278;SDS011;9773;47.062;15.446;2023-06-14T09:53:37;3.47;;;3.27;;
19278;SDS011;9773;47.062;15.446;2023-06-14T09:56:05;3.90;;;3.60;;
19278;SDS011;9773;47.062;15.446;2023-06-14T09:58:31;4.70;;;3.97;;
19278;SDS011;9773;47.062;15.446;2023-06-14T10:01:01;3.87;;;3.57;;
19278;SDS011;9773;47.062;15.446;2023-06-14T10:03:28;4.10;;;3.80;;
19278;SDS011;9773;47.062;15.446;2023-06-14T10:05:55;3.37;;;3.17;;
19278;SDS011;9773;47.062;15.446;2023-06-14T10:08:27;4.00;;;3.43;;
19278;SDS011;9773;47.062;15.446;2023-06-14T10:10:55;3.80;;;3.50;;
19278;SDS011;9773;47.062;15.446;2023-06-14T10:13:22;3.80;;;3.50;;
19278;SDS011;9773;47.062;15.446;2023-06-14T10:16:10;3.60;;;3.40;;
19278;SDS011;9773;47.062;15.446;2023-06-14T10:23:57;5.07;;;3.70;;
19278;SDS011;9773;47.062;15.446;2023-06-14T10:26:27;3.67;;;3.27;;
19278;SDS011;9773;47.062;15.446;2023-06-14T10:29:00;3.57;;;3.27;;
19278;SDS011;9773;47.062;15.446;2023-06-14T10:34:10;3.47;;;3.23;;
19278;SDS011;9773;47.062;15.446;2023-06-14T10:36:37;3.40;;;3.20;;
19278;SDS011;9773;47.062;15.446;2023-06-14T10:39:07;2.90;;;2.70;;
19278;SDS011;9773;47.062;15.446;2023-06-14T10:41:37;3.23;;;2.93;;
19278;SDS011;9773;47.062;15.446;2023-06-14T10:46:54;3.10;;;2.90;;
19278;SDS011;9773;47.062;15.446;2023-06-14T10:49:36;3.10;;;2.90;;
19278;SDS011;9773;47.062;15.446;2023-06-14T10:52:13;3.20;;;3.00;;
19278;SDS011;9773;47.062;15.446;2023-06-14T10:57:38;3.33;;;3.13;;
19278;SDS011;9773;47.062;15.446;2023-06-14T11:00:06;3.10;;;2.90;;
19278;SDS011;9773;47.062;15.446;2023-06-14T11:03:02;3.23;;;3.00;;
19278;SDS011;9773;47.062;15.446;2023-06-14T11:05:56;3.10;;;2.97;;
19278;SDS011;9773;47.062;15.446;2023-06-14T11:11:10;3.37;;;3.17;;
19278;SDS011;9773;47.062;15.446;2023-06-14T11:13:42;3.67;;;2.80;;
19278;SDS011;9773;47.062;15.446;2023-06-14T11:16:14;3.20;;;3.00;;
19278;SDS011;9773;47.062;15.446;2023-06-14T11:18:41;2.57;;;2.47;;
19278;SDS011;9773;47.062;15.446;2023-06-14T11:21:10;2.80;;;2.60;;
19278;SDS011;9773;47.062;15.446;2023-06-14T11:23:36;2.83;;;2.63;;
19278;SDS011;9773;47.062;15.446;2023-06-14T11:26:02;3.00;;;2.80;;
19278;SDS011;9773;47.062;15.446;2023-06-14T11:28:38;2.80;;;2.70;;
19278;SDS011;9773;47.062;15.446;2023-06-14T11:31:05;3.30;;;2.90;;
19278;SDS011;9773;47.062;15.446;2023-06-14T11:33:31;3.20;;;3.00;;
19278;SDS011;9773;47.062;15.446;2023-06-14T11:35:57;3.33;;;3.03;;
19278;SDS011;9773;47.062;15.446;2023-06-14T11:38:24;2.80;;;2.60;;
19278;SDS011;9773;47.062;15.446;2023-06-14T11:40:51;2.93;;;2.60;;
19278;SDS011;9773;47.062;15.446;2023-06-14T11:43:16;3.63;;;3.30;;
19278;SDS011;9773;47.062;15.446;2023-06-14T11:45:43;3.00;;;2.80;;
19278;SDS011;9773;47.062;15.446;2023-06-14T11:48:14;3.23;;;3.03;;
19278;SDS011;9773;47.062;15.446;2023-06-14T11:50:40;3.50;;;3.20;;
19278;SDS011;9773;47.062;15.446;2023-06-14T11:53:06;3.07;;;2.87;;
19278;SDS011;9773;47.062;15.446;2023-06-14T11:55:41;3.00;;;2.70;;
19278;SDS011;9773;47.062;15.446;2023-06-14T11:58:10;2.90;;;2.70;;
19278;SDS011;9773;47.062;15.446;2023-06-14T12:00:37;2.73;;;2.60;;
19278;SDS011;9773;47.062;15.446;2023-06-14T12:03:03;3.10;;;2.90;;
19278;SDS011;9773;47.062;15.446;2023-06-14T12:05:29;3.37;;;2.90;;
19278;SDS011;9773;47.062;15.446;2023-06-14T12:08:02;3.10;;;2.90;;
19278;SDS011;9773;47.062;15.446;2023-06-14T12:10:31;3.90;;;2.70;;
19278;SDS011;9773;47.062;15.446;2023-06-14T12:13:06;3.50;;;3.30;;
19278;SDS011;9773;47.062;15.446;2023-06-14T12:15:32;3.47;;;3.17;;
19278;SDS011;9773;47.062;15.446;2023-06-14T12:17:58;3.10;;;2.90;;
19278;SDS011;9773;47.062;15.446;2023-06-14T12:20:28;2.70;;;2.60;;
19278;SDS011;9773;47.062;15.446;2023-06-14T12:22:56;3.70;;;2.60;;
19278;SDS011;9773;47.062;15.446;2023-06-14T12:25:31;2.80;;;2.70;;
19278;SDS011;9773;47.062;15.446;2023-06-14T12:28:05;2.97;;;2.77;;
19278;SDS011;9773;47.062;15.446;2023-06-14T12:30:31;2.83;;;2.53;;
19278;SDS011;9773;47.062;15.446;2023-06-14T12:32:58;2.93;;;2.73;;
19278;SDS011;9773;47.062;15.446;2023-06-14T12:35:24;2.90;;;2.70;;
19278;SDS011;9773;47.062;15.446;2023-06-14T12:37:50;3.07;;;2.90;;
19278;SDS011;9773;47.062;15.446;2023-06-14T12:40:16;2.63;;;2.53;;
19278;SDS011;9773;47.062;15.446;2023-06-14T12:42:42;2.83;;;2.70;;
19278;SDS011;9773;47.062;15.446;2023-06-14T12:45:09;3.27;;;3.03;;
19278;SDS011;9773;47.062;15.446;2023-06-14T12:47:35;3.33;;;2.40;;
19278;SDS011;9773;47.062;15.446;2023-06-14T12:50:01;2.60;;;2.40;;
19278;SDS011;9773;47.062;15.446;2023-06-14T12:52:27;2.63;;;2.53;;
19278;SDS011;9773;47.062;15.446;2023-06-14T12:54:53;3.17;;;2.97;;
19278;SDS011;9773;47.062;15.446;2023-06-14T12:57:18;3.20;;;3.00;;
19278;SDS011;9773;47.062;15.446;2023-06-14T12:59:44;2.73;;;2.63;;
19278;SDS011;9773;47.062;15.446;2023-06-14T13:02:14;3.03;;;2.60;;
19278;SDS011;9773;47.062;15.446;2023-06-14T13:04:41;3.10;;;2.90;;
19278;SDS011;9773;47.062;15.446;2023-06-14T13:07:08;2.90;;;2.70;;
19278;SDS011;9773;47.062;15.446;2023-06-14T13:09:35;2.50;;;2.40;;
19278;SDS011;9773;47.062;15.446;2023-06-14T13:12:01;2.90;;;2.70;;
19278;SDS011;9773;47.062;15.446;2023-06-14T13:14:27;2.93;;;2.63;;
19278;SDS011;9773;47.062;15.446;2023-06-14T13:16:53;2.83;;;2.70;;
19278;SDS011;9773;47.062;15.446;2023-06-14T13:19:20;2.67;;;2.57;;
19278;SDS011;9773;47.062;15.446;2023-06-14T13:21:47;2.60;;;2.50;;
19278;SDS011;9773;47.062;15.446;2023-06-14T13:24:13;2.73;;;2.53;;
19278;SDS011;9773;47.062;15.446;2023-06-14T13:26:39;2.77;;;2.67;;
19278;SDS011;9773;47.062;15.446;2023-06-14T13:29:05;2.80;;;2.60;;
19278;SDS011;9773;47.062;15.446;2023-06-14T13:31:31;2.93;;;2.73;;
19278;SDS011;9773;47.062;15.446;2023-06-14T13:33:57;2.80;;;2.70;;
19278;SDS011;9773;47.062;15.446;2023-06-14T13:36:22;3.03;;;2.87;;
19278;SDS011;9773;47.062;15.446;2023-06-14T13:38:48;3.00;;;2.80;;
19278;SDS011;9773;47.062;15.446;2023-06-14T13:41:16;2.73;;;2.63;;
19278;SDS011;9773;47.062;15.446;2023-06-14T13:43:42;2.97;;;2.87;;
19278;SDS011;9773;47.062;15.446;2023-06-14T13:46:08;4.63;;;2.90;;
19278;SDS011;9773;47.062;15.446;2023-06-14T13:48:33;2.80;;;2.67;;
19278;SDS011;9773;47.062;15.446;2023-06-14T13:50:59;2.87;;;2.67;;
19278;SDS011;9773;47.062;15.446;2023-06-14T13:53:25;3.33;;;3.13;;
19278;SDS011;9773;47.062;15.446;2023-06-14T13:55:51;3.20;;;3.00;;
19278;SDS011;9773;47.062;15.446;2023-06-14T13:58:17;2.90;;;2.70;;
19278;SDS011;9773;47.062;15.446;2023-06-14T14:00:44;2.97;;;2.80;;
19278;SDS011;9773;47.062;15.446;2023-06-14T14:03:10;4.03;;;2.97;;
19278;SDS011;9773;47.062;15.446;2023-06-14T14:05:36;3.03;;;2.70;;
19278;SDS011;9773;47.062;15.446;2023-06-14T14:08:02;3.00;;;2.87;;
19278;SDS011;9773;47.062;15.446;2023-06-14T14:10:29;3.13;;;2.93;;
19278;SDS011;9773;47.062;15.446;2023-06-14T14:12:54;2.80;;;2.70;;
19278;SDS011;9773;47.062;15.446;2023-06-14T14:15:21;3.23;;;3.03;;
19278;SDS011;9773;47.062;15.446;2023-06-14T14:17:47;3.43;;;2.97;;
19278;SDS011;9773;47.062;15.446;2023-06-14T14:20:13;2.87;;;2.70;;
19278;SDS011;9773;47.062;15.446;2023-06-14T14:22:43;3.20;;;3.00;;
19278;SDS011;9773;47.062;15.446;2023-06-14T14:25:09;3.50;;;3.30;;
19278;SDS011;9773;47.062;15.446;2023-06-14T14:27:35;6.03;;;4.60;;
19278;SDS011;9773;47.062;15.446;2023-06-14T14:30:02;4.67;;;4.00;;
19278;SDS011;9773;47.062;15.446;2023-06-14T14:32:29;3.30;;;3.10;;
19278;SDS011;9773;47.062;15.446;2023-06-14T14:34:54;3.87;;;3.57;;
19278;SDS011;9773;47.062;15.446;2023-06-14T14:37:20;4.37;;;3.80;;
19278;SDS011;9773;47.062;15.446;2023-06-14T14:39:46;3.30;;;3.00;;
19278;SDS011;9773;47.062;15.446;2023-06-14T14:42:12;3.77;;;3.47;;
19278;SDS011;9773;47.062;15.446;2023-06-14T14:44:38;3.60;;;3.30;;
19278;SDS011;9773;47.062;15.446;2023-06-14T14:47:04;4.47;;;3.90;;
19278;SDS011;9773;47.062;15.446;2023-06-14T14:49:31;3.30;;;3.10;;
19278;SDS011;9773;47.062;15.446;2023-06-14T14:51:57;3.13;;;2.90;;
19278;SDS011;9773;47.062;15.446;2023-06-14T14:54:23;3.10;;;2.90;;
19278;SDS011;9773;47.062;15.446;2023-06-14T14:56:50;3.37;;;2.53;;
19278;SDS011;9773;47.062;15.446;2023-06-14T14:59:16;3.33;;;3.13;;
19278;SDS011;9773;47.062;15.446;2023-06-14T15:01:43;3.03;;;2.83;;
19278;SDS011;9773;47.062;15.446;2023-06-14T15:04:09;2.73;;;2.60;;
19278;SDS011;9773;47.062;15.446;2023-06-14T15:06:35;2.83;;;2.73;;
19278;SDS011;9773;47.062;15.446;2023-06-14T15:09:00;3.50;;;3.17;;
19278;SDS011;9773;47.062;15.446;2023-06-14T15:11:27;3.73;;;3.20;;
19278;SDS011;9773;47.062;15.446;2023-06-14T15:13:52;3.90;;;3.60;;